sensor_id;sensor_type;location;lat;lon;timestamp;P1;durP1;ratioP1;P2;durP2;ratioP2
70216;SDS011;57608;0.000;0.000;2022-09-13T00:00:33;4.38;;;2.88;;
70216;SDS011;57608;0.000;0.000;2022-09-13T00:03:00;4.05;;;3.05;;
70216;SDS011;57608;0.000;0.000;2022-09-13T00:05:26;3.92;;;2.90;;
70216;SDS011;57608;0.000;0.000;2022-09-13T00:07:52;4.95;;;3.35;;
70216;SDS011;57608;0.000;0.000;2022-09-13T00:10:19;4.93;;;3.17;;
70216;SDS011;57608;0.000;0.000;2022-09-13T00:12:44;4.15;;;3.10;;
70216;SDS011;57608;0.000;0.000;2022-09-13T00:15:12;5.20;;;3.30;;
70216;SDS011;57608;0.000;0.000;2022-09-13T00:17:37;4.82;;;3.20;;
70216;SDS011;57608;0.000;0.000;2022-09-13T00:20:03;4.80;;;3.20;;
70216;SDS011;57608;0.000;0.000;2022-09-13T00:22:28;5.47;;;3.10;;
70216;SDS011;57608;0.000;0.000;2022-09-13T00:24:54;5.00;;;3.30;;
70216;SDS011;57608;0.000;0.000;2022-09-13T00:27:19;5.32;;;3.17;;
70216;SDS011;57608;0.000;0.000;2022-09-13T00:29:52;5.53;;;3.20;;
70216;SDS011;57608;0.000;0.000;2022-09-13T00:32:18;5.18;;;3.20;;
70216;SDS011;57608;0.000;0.000;2022-09-13T00:34:44;4.50;;;3.08;;
70216;SDS011;57608;0.000;0.000;2022-09-13T00:37:09;6.20;;;3.22;;
70216;SDS011;57608;0.000;0.000;2022-09-13T00:39:34;6.80;;;3.47;;
70216;SDS011;57608;0.000;0.000;2022-09-13T00:42:00;5.55;;;3.47;;
70216;SDS011;57608;0.000;0.000;2022-09-13T00:47:20;5.28;;;3.40;;
70216;SDS011;57608;0.000;0.000;2022-09-13T00:49:51;4.20;;;2.90;;
70216;SDS011;57608;0.000;0.000;2022-09-13T00:52:22;4.88;;;3.53;;
70216;SDS011;57608;0.000;0.000;2022-09-13T00:54:57;6.07;;;3.78;;
70216;SDS011;57608;0.000;0.000;2022-09-13T00:57:26;5.28;;;3.10;;
70216;SDS011;57608;0.000;0.000;2022-09-13T01:00:04;5.13;;;3.15;;
70216;SDS011;57608;0.000;0.000;2022-09-13T01:02:36;6.13;;;3.45;;
70216;SDS011;57608;0.000;0.000;2022-09-13T01:05:02;3.90;;;3.20;;
70216;SDS011;57608;0.000;0.000;2022-09-13T01:07:28;4.43;;;3.03;;
70216;SDS011;57608;0.000;0.000;2022-09-13T01:09:54;5.63;;;3.50;;
70216;SDS011;57608;0.000;0.000;2022-09-13T01:12:33;5.22;;;3.58;;
70216;SDS011;57608;0.000;0.000;2022-09-13T01:15:03;5.00;;;3.17;;
70216;SDS011;57608;0.000;0.000;2022-09-13T01:17:29;4.22;;;3.05;;
70216;SDS011;57608;0.000;0.000;2022-09-13T01:19:57;4.28;;;3.53;;
70216;SDS011;57608;0.000;0.000;2022-09-13T01:32:06;3.70;;;2.97;;
70216;SDS011;57608;0.000;0.000;2022-09-13T01:37:50;5.65;;;3.53;;
70216;SDS011;57608;0.000;0.000;2022-09-13T01:45:53;4.25;;;3.22;;
70216;SDS011;57608;0.000;0.000;2022-09-13T01:57:27;5.22;;;3.22;;
70216;SDS011;57608;0.000;0.000;2022-09-13T02:00:04;5.45;;;3.58;;
70216;SDS011;57608;0.000;0.000;2022-09-13T02:02:39;4.60;;;3.42;;
70216;SDS011;57608;0.000;0.000;2022-09-13T02:07:58;4.82;;;3.60;;
70216;SDS011;57608;0.000;0.000;2022-09-13T02:10:33;4.75;;;3.42;;
70216;SDS011;57608;0.000;0.000;2022-09-13T02:13:05;4.25;;;3.47;;
70216;SDS011;57608;0.000;0.000;2022-09-13T02:15:46;4.93;;;2.95;;
70216;SDS011;57608;0.000;0.000;2022-09-13T02:18:27;4.03;;;2.90;;
70216;SDS011;57608;0.000;0.000;2022-09-13T02:21:33;3.90;;;2.88;;
70216;SDS011;57608;0.000;0.000;2022-09-13T02:23:53;4.63;;;3.30;;
70216;SDS011;57608;0.000;0.000;2022-09-13T02:26:28;4.55;;;3.00;;
70216;SDS011;57608;0.000;0.000;2022-09-13T02:28:56;4.70;;;3.03;;
70216;SDS011;57608;0.000;0.000;2022-09-13T02:31:30;3.75;;;3.08;;
70216;SDS011;57608;0.000;0.000;2022-09-13T02:34:05;4.35;;;3.60;;
70216;SDS011;57608;0.000;0.000;2022-09-13T02:36:37;5.72;;;4.10;;
70216;SDS011;57608;0.000;0.000;2022-09-13T02:39:20;4.43;;;3.63;;
70216;SDS011;57608;0.000;0.000;2022-09-13T02:44:42;6.47;;;3.75;;
70216;SDS011;57608;0.000;0.000;2022-09-13T02:58:31;5.40;;;4.28;;
70216;SDS011;57608;0.000;0.000;2022-09-13T03:01:08;6.07;;;4.35;;
70216;SDS011;57608;0.000;0.000;2022-09-13T03:03:34;5.18;;;4.25;;
70216;SDS011;57608;0.000;0.000;2022-09-13T03:06:00;7.07;;;4.72;;
70216;SDS011;57608;0.000;0.000;2022-09-13T03:08:26;6.80;;;4.38;;
70216;SDS011;57608;0.000;0.000;2022-09-13T03:10:56;5.32;;;4.18;;
70216;SDS011;57608;0.000;0.000;2022-09-13T03:16:22;6.55;;;3.95;;
70216;SDS011;57608;0.000;0.000;2022-09-13T03:29:24;4.97;;;4.20;;
70216;SDS011;57608;0.000;0.000;2022-09-13T03:32:11;6.88;;;4.40;;
70216;SDS011;57608;0.000;0.000;2022-09-13T03:37:50;5.60;;;3.60;;
70216;SDS011;57608;0.000;0.000;2022-09-13T03:45:47;5.30;;;4.10;;
70216;SDS011;57608;0.000;0.000;2022-09-13T03:48:18;5.82;;;4.03;;
70216;SDS011;57608;0.000;0.000;2022-09-13T03:50:45;4.80;;;3.58;;
70216;SDS011;57608;0.000;0.000;2022-09-13T03:53:13;5.10;;;3.75;;
70216;SDS011;57608;0.000;0.000;2022-09-13T03:55:44;5.30;;;3.78;;
70216;SDS011;57608;0.000;0.000;2022-09-13T03:58:13;8.00;;;4.10;;
70216;SDS011;57608;0.000;0.000;2022-09-13T04:00:40;5.60;;;4.05;;
70216;SDS011;57608;0.000;0.000;2022-09-13T04:03:07;5.15;;;3.75;;
70216;SDS011;57608;0.000;0.000;2022-09-13T04:05:33;6.15;;;4.32;;
70216;SDS011;57608;0.000;0.000;2022-09-13T04:07:59;5.75;;;4.03;;
70216;SDS011;57608;0.000;0.000;2022-09-13T04:10:26;5.25;;;3.95;;
70216;SDS011;57608;0.000;0.000;2022-09-13T04:12:56;4.95;;;4.10;;
70216;SDS011;57608;0.000;0.000;2022-09-13T04:15:22;7.60;;;4.60;;
70216;SDS011;57608;0.000;0.000;2022-09-13T04:17:48;11.85;;;7.93;;
70216;SDS011;57608;0.000;0.000;2022-09-13T04:20:16;10.48;;;7.25;;
70216;SDS011;57608;0.000;0.000;2022-09-13T04:22:54;12.05;;;9.65;;
70216;SDS011;57608;0.000;0.000;2022-09-13T04:25:21;14.07;;;9.65;;
70216;SDS011;57608;0.000;0.000;2022-09-13T04:27:48;10.30;;;7.05;;
70216;SDS011;57608;0.000;0.000;2022-09-13T04:30:19;8.40;;;5.32;;
70216;SDS011;57608;0.000;0.000;2022-09-13T04:32:44;13.45;;;9.60;;
70216;SDS011;57608;0.000;0.000;2022-09-13T04:35:10;15.45;;;11.38;;
70216;SDS011;57608;0.000;0.000;2022-09-13T04:40:21;16.83;;;11.50;;
70216;SDS011;57608;0.000;0.000;2022-09-13T04:42:47;11.48;;;7.65;;
70216;SDS011;57608;0.000;0.000;2022-09-13T04:45:13;8.68;;;5.82;;
70216;SDS011;57608;0.000;0.000;2022-09-13T04:47:39;9.70;;;5.97;;
70216;SDS011;57608;0.000;0.000;2022-09-13T04:50:04;8.40;;;5.60;;
70216;SDS011;57608;0.000;0.000;2022-09-13T04:52:31;10.00;;;7.63;;
70216;SDS011;57608;0.000;0.000;2022-09-13T04:54:57;12.73;;;8.43;;
70216;SDS011;57608;0.000;0.000;2022-09-13T04:57:25;9.73;;;6.43;;
70216;SDS011;57608;0.000;0.000;2022-09-13T04:59:51;13.60;;;9.18;;
70216;SDS011;57608;0.000;0.000;2022-09-13T05:02:17;17.45;;;13.77;;
70216;SDS011;57608;0.000;0.000;2022-09-13T05:04:42;10.82;;;8.82;;
70216;SDS011;57608;0.000;0.000;2022-09-13T05:07:07;9.15;;;6.72;;
70216;SDS011;57608;0.000;0.000;2022-09-13T05:09:33;10.45;;;5.90;;
70216;SDS011;57608;0.000;0.000;2022-09-13T05:11:58;16.92;;;14.10;;
70216;SDS011;57608;0.000;0.000;2022-09-13T05:14:24;21.30;;;16.52;;
70216;SDS011;57608;0.000;0.000;2022-09-13T05:16:49;11.15;;;9.32;;
70216;SDS011;57608;0.000;0.000;2022-09-13T05:19:15;10.05;;;7.38;;
70216;SDS011;57608;0.000;0.000;2022-09-13T05:21:40;8.95;;;6.72;;
70216;SDS011;57608;0.000;0.000;2022-09-13T05:24:06;9.15;;;6.00;;
70216;SDS011;57608;0.000;0.000;2022-09-13T05:26:31;8.85;;;6.18;;
70216;SDS011;57608;0.000;0.000;2022-09-13T05:28:57;8.38;;;5.63;;
70216;SDS011;57608;0.000;0.000;2022-09-13T05:31:27;9.13;;;5.60;;
70216;SDS011;57608;0.000;0.000;2022-09-13T05:34:02;7.72;;;5.32;;
70216;SDS011;57608;0.000;0.000;2022-09-13T05:36:32;7.70;;;5.13;;
70216;SDS011;57608;0.000;0.000;2022-09-13T05:38:58;7.70;;;4.85;;
70216;SDS011;57608;0.000;0.000;2022-09-13T05:41:24;6.60;;;5.10;;
70216;SDS011;57608;0.000;0.000;2022-09-13T05:43:50;6.82;;;4.80;;
70216;SDS011;57608;0.000;0.000;2022-09-13T05:46:16;7.47;;;4.90;;
70216;SDS011;57608;0.000;0.000;2022-09-13T05:48:46;8.70;;;4.88;;
70216;SDS011;57608;0.000;0.000;2022-09-13T05:51:19;7.18;;;5.18;;
70216;SDS011;57608;0.000;0.000;2022-09-13T05:53:47;6.90;;;4.40;;
70216;SDS011;57608;0.000;0.000;2022-09-13T05:56:15;7.40;;;4.22;;
70216;SDS011;57608;0.000;0.000;2022-09-13T06:01:12;11.18;;;5.60;;
70216;SDS011;57608;0.000;0.000;2022-09-13T06:03:38;11.18;;;5.38;;
70216;SDS011;57608;0.000;0.000;2022-09-13T06:06:04;9.57;;;4.63;;
70216;SDS011;57608;0.000;0.000;2022-09-13T06:08:31;10.05;;;5.30;;
70216;SDS011;57608;0.000;0.000;2022-09-13T06:10:58;15.82;;;7.95;;
70216;SDS011;57608;0.000;0.000;2022-09-13T06:13:29;14.45;;;10.38;;
70216;SDS011;57608;0.000;0.000;2022-09-13T06:15:55;8.75;;;5.80;;
70216;SDS011;57608;0.000;0.000;2022-09-13T06:18:22;7.90;;;5.22;;
70216;SDS011;57608;0.000;0.000;2022-09-13T06:20:49;10.75;;;5.20;;
70216;SDS011;57608;0.000;0.000;2022-09-13T06:23:22;10.95;;;5.70;;
70216;SDS011;57608;0.000;0.000;2022-09-13T06:25:48;9.80;;;5.88;;
70216;SDS011;57608;0.000;0.000;2022-09-13T06:28:13;8.23;;;5.05;;
70216;SDS011;57608;0.000;0.000;2022-09-13T06:30:38;8.75;;;5.30;;
70216;SDS011;57608;0.000;0.000;2022-09-13T06:33:04;13.88;;;5.00;;
70216;SDS011;57608;0.000;0.000;2022-09-13T06:35:29;11.02;;;4.97;;
70216;SDS011;57608;0.000;0.000;2022-09-13T06:37:55;11.45;;;5.03;;
70216;SDS011;57608;0.000;0.000;2022-09-13T06:40:22;8.88;;;5.07;;
70216;SDS011;57608;0.000;0.000;2022-09-13T06:42:48;9.57;;;5.32;;
70216;SDS011;57608;0.000;0.000;2022-09-13T06:45:13;8.30;;;5.40;;
70216;SDS011;57608;0.000;0.000;2022-09-13T06:47:39;9.75;;;4.68;;
70216;SDS011;57608;0.000;0.000;2022-09-13T06:50:04;7.95;;;4.90;;
70216;SDS011;57608;0.000;0.000;2022-09-13T06:52:31;8.77;;;4.93;;
70216;SDS011;57608;0.000;0.000;2022-09-13T06:54:57;9.18;;;5.38;;
70216;SDS011;57608;0.000;0.000;2022-09-13T06:57:23;7.88;;;4.75;;
70216;SDS011;57608;0.000;0.000;2022-09-13T06:59:48;7.80;;;5.03;;
70216;SDS011;57608;0.000;0.000;2022-09-13T07:02:13;7.38;;;4.68;;
70216;SDS011;57608;0.000;0.000;2022-09-13T07:04:39;7.18;;;4.55;;
70216;SDS011;57608;0.000;0.000;2022-09-13T07:07:05;10.43;;;4.90;;
70216;SDS011;57608;0.000;0.000;2022-09-13T07:09:30;8.70;;;4.95;;
70216;SDS011;57608;0.000;0.000;2022-09-13T07:11:58;7.18;;;4.63;;
70216;SDS011;57608;0.000;0.000;2022-09-13T07:14:26;9.25;;;5.18;;
70216;SDS011;57608;0.000;0.000;2022-09-13T07:16:53;6.22;;;4.38;;
70216;SDS011;57608;0.000;0.000;2022-09-13T07:19:20;7.45;;;4.75;;
70216;SDS011;57608;0.000;0.000;2022-09-13T07:21:48;8.90;;;5.25;;
70216;SDS011;57608;0.000;0.000;2022-09-13T07:24:15;7.65;;;4.55;;
70216;SDS011;57608;0.000;0.000;2022-09-13T07:26:41;9.02;;;4.90;;
70216;SDS011;57608;0.000;0.000;2022-09-13T07:29:07;8.38;;;4.60;;
70216;SDS011;57608;0.000;0.000;2022-09-13T07:31:35;8.80;;;4.68;;
70216;SDS011;57608;0.000;0.000;2022-09-13T07:34:04;6.85;;;4.22;;
70216;SDS011;57608;0.000;0.000;2022-09-13T07:36:31;7.35;;;4.35;;
70216;SDS011;57608;0.000;0.000;2022-09-13T07:38:59;6.10;;;3.97;;
70216;SDS011;57608;0.000;0.000;2022-09-13T07:41:26;9.00;;;4.30;;
70216;SDS011;57608;0.000;0.000;2022-09-13T07:43:53;6.88;;;4.05;;
70216;SDS011;57608;0.000;0.000;2022-09-13T07:46:22;7.88;;;4.15;;
70216;SDS011;57608;0.000;0.000;2022-09-13T07:48:54;7.50;;;3.95;;
70216;SDS011;57608;0.000;0.000;2022-09-13T07:51:25;7.20;;;3.95;;
70216;SDS011;57608;0.000;0.000;2022-09-13T07:53:53;9.32;;;4.32;;
70216;SDS011;57608;0.000;0.000;2022-09-13T07:56:22;9.05;;;4.25;;
70216;SDS011;57608;0.000;0.000;2022-09-13T07:59:09;6.40;;;4.38;;
70216;SDS011;57608;0.000;0.000;2022-09-13T08:01:41;6.45;;;3.63;;
70216;SDS011;57608;0.000;0.000;2022-09-13T08:04:12;8.82;;;3.90;;
70216;SDS011;57608;0.000;0.000;2022-09-13T08:06:39;8.18;;;4.00;;
70216;SDS011;57608;0.000;0.000;2022-09-13T08:09:07;9.13;;;4.05;;
70216;SDS011;57608;0.000;0.000;2022-09-13T08:11:34;7.55;;;3.97;;
70216;SDS011;57608;0.000;0.000;2022-09-13T08:14:00;7.68;;;3.80;;
70216;SDS011;57608;0.000;0.000;2022-09-13T08:16:26;6.43;;;3.92;;
70216;SDS011;57608;0.000;0.000;2022-09-13T08:18:54;4.93;;;3.22;;
70216;SDS011;57608;0.000;0.000;2022-09-13T08:21:22;8.02;;;3.92;;
70216;SDS011;57608;0.000;0.000;2022-09-13T08:23:48;6.30;;;3.80;;
70216;SDS011;57608;0.000;0.000;2022-09-13T08:26:14;6.18;;;3.70;;
70216;SDS011;57608;0.000;0.000;2022-09-13T08:28:40;5.75;;;3.55;;
70216;SDS011;57608;0.000;0.000;2022-09-13T08:33:45;7.40;;;3.53;;
70216;SDS011;57608;0.000;0.000;2022-09-13T08:36:15;5.57;;;3.80;;
70216;SDS011;57608;0.000;0.000;2022-09-13T08:38:46;4.60;;;3.60;;
70216;SDS011;57608;0.000;0.000;2022-09-13T08:49:25;6.45;;;3.60;;
70216;SDS011;57608;0.000;0.000;2022-09-13T08:51:58;7.70;;;3.22;;
70216;SDS011;57608;0.000;0.000;2022-09-13T08:54:35;7.70;;;4.07;;
70216;SDS011;57608;0.000;0.000;2022-09-13T08:59:56;5.43;;;3.47;;
70216;SDS011;57608;0.000;0.000;2022-09-13T09:05:27;4.93;;;3.40;;
70216;SDS011;57608;0.000;0.000;2022-09-13T09:08:24;5.45;;;3.08;;
70216;SDS011;57608;0.000;0.000;2022-09-13T09:10:44;5.95;;;3.30;;
70216;SDS011;57608;0.000;0.000;2022-09-13T09:13:20;6.45;;;3.05;;
70216;SDS011;57608;0.000;0.000;2022-09-13T09:18:28;5.90;;;2.85;;
70216;SDS011;57608;0.000;0.000;2022-09-13T09:20:59;6.20;;;3.20;;
70216;SDS011;57608;0.000;0.000;2022-09-13T09:23:27;4.28;;;2.70;;
70216;SDS011;57608;0.000;0.000;2022-09-13T09:25:56;5.95;;;2.83;;
70216;SDS011;57608;0.000;0.000;2022-09-13T09:28:29;4.93;;;2.33;;
70216;SDS011;57608;0.000;0.000;2022-09-13T09:31:10;4.35;;;2.67;;
70216;SDS011;57608;0.000;0.000;2022-09-13T09:34:02;4.90;;;2.35;;
70216;SDS011;57608;0.000;0.000;2022-09-13T09:36:36;4.72;;;2.80;;
70216;SDS011;57608;0.000;0.000;2022-09-13T09:39:05;3.75;;;2.50;;
70216;SDS011;57608;0.000;0.000;2022-09-13T09:41:35;4.03;;;2.38;;
70216;SDS011;57608;0.000;0.000;2022-09-13T09:44:24;5.82;;;2.47;;
70216;SDS011;57608;0.000;0.000;2022-09-13T09:49:49;3.35;;;2.10;;
70216;SDS011;57608;0.000;0.000;2022-09-13T09:55:48;3.05;;;2.33;;
70216;SDS011;57608;0.000;0.000;2022-09-13T09:58:17;4.45;;;2.10;;
70216;SDS011;57608;0.000;0.000;2022-09-13T10:01:02;4.13;;;2.08;;
70216;SDS011;57608;0.000;0.000;2022-09-13T10:03:31;2.72;;;1.90;;
70216;SDS011;57608;0.000;0.000;2022-09-13T10:06:08;3.58;;;2.00;;
70216;SDS011;57608;0.000;0.000;2022-09-13T10:08:39;3.25;;;1.88;;
70216;SDS011;57608;0.000;0.000;2022-09-13T10:11:07;2.60;;;1.90;;
70216;SDS011;57608;0.000;0.000;2022-09-13T10:13:36;5.22;;;1.95;;
70216;SDS011;57608;0.000;0.000;2022-09-13T10:16:06;2.95;;;1.80;;
70216;SDS011;57608;0.000;0.000;2022-09-13T10:18:49;3.58;;;1.65;;
70216;SDS011;57608;0.000;0.000;2022-09-13T10:23:43;2.83;;;1.63;;
70216;SDS011;57608;0.000;0.000;2022-09-13T10:26:23;2.88;;;1.55;;
70216;SDS011;57608;0.000;0.000;2022-09-13T10:29:05;2.85;;;1.60;;
70216;SDS011;57608;0.000;0.000;2022-09-13T10:31:42;2.90;;;1.30;;
70216;SDS011;57608;0.000;0.000;2022-09-13T10:36:35;2.35;;;1.45;;
70216;SDS011;57608;0.000;0.000;2022-09-13T10:39:14;4.78;;;1.40;;
70216;SDS011;57608;0.000;0.000;2022-09-13T10:41:47;4.13;;;1.48;;
70216;SDS011;57608;0.000;0.000;2022-09-13T10:44:23;4.03;;;1.63;;
70216;SDS011;57608;0.000;0.000;2022-09-13T10:46:53;3.92;;;1.60;;
70216;SDS011;57608;0.000;0.000;2022-09-13T10:52:37;5.38;;;1.60;;
70216;SDS011;57608;0.000;0.000;2022-09-13T10:57:45;4.13;;;1.40;;
70216;SDS011;57608;0.000;0.000;2022-09-13T11:00:13;3.83;;;1.70;;
70216;SDS011;57608;0.000;0.000;2022-09-13T11:05:31;3.40;;;1.65;;
70216;SDS011;57608;0.000;0.000;2022-09-13T11:30:20;4.05;;;1.30;;
70216;SDS011;57608;0.000;0.000;2022-09-13T11:44:02;2.42;;;1.40;;
70216;SDS011;57608;0.000;0.000;2022-09-13T11:47:02;2.35;;;1.30;;
70216;SDS011;57608;0.000;0.000;2022-09-13T11:55:36;2.78;;;1.10;;
70216;SDS011;57608;0.000;0.000;2022-09-13T11:58:09;3.42;;;1.50;;
70216;SDS011;57608;0.000;0.000;2022-09-13T12:00:40;3.53;;;1.23;;
70216;SDS011;57608;0.000;0.000;2022-09-13T12:05:39;2.88;;;1.35;;
70216;SDS011;57608;0.000;0.000;2022-09-13T12:08:15;2.65;;;1.45;;
70216;SDS011;57608;0.000;0.000;2022-09-13T12:13:14;2.85;;;1.00;;
70216;SDS011;57608;0.000;0.000;2022-09-13T12:15:45;2.95;;;1.50;;
70216;SDS011;57608;0.000;0.000;2022-09-13T12:18:16;2.85;;;1.38;;
70216;SDS011;57608;0.000;0.000;2022-09-13T12:23:42;3.08;;;1.30;;
70216;SDS011;57608;0.000;0.000;2022-09-13T12:29:29;2.00;;;1.30;;
70216;SDS011;57608;0.000;0.000;2022-09-13T13:01:21;2.20;;;1.00;;
70216;SDS011;57608;0.000;0.000;2022-09-13T13:03:50;2.30;;;1.33;;
70216;SDS011;57608;0.000;0.000;2022-09-13T13:12:02;1.60;;;0.98;;
70216;SDS011;57608;0.000;0.000;2022-09-13T13:14:46;2.10;;;1.20;;
70216;SDS011;57608;0.000;0.000;2022-09-13T13:34:03;3.22;;;1.30;;
70216;SDS011;57608;0.000;0.000;2022-09-13T13:36:47;3.78;;;1.42;;
70216;SDS011;57608;0.000;0.000;2022-09-13T13:46:49;1.60;;;1.02;;
70216;SDS011;57608;0.000;0.000;2022-09-13T13:50:07;3.47;;;1.30;;
70216;SDS011;57608;0.000;0.000;2022-09-13T14:02:33;4.68;;;1.27;;
70216;SDS011;57608;0.000;0.000;2022-09-13T14:07:55;2.05;;;1.15;;
70216;SDS011;57608;0.000;0.000;2022-09-13T14:10:24;3.38;;;1.63;;
70216;SDS011;57608;0.000;0.000;2022-09-13T14:21:30;3.17;;;1.60;;
70216;SDS011;57608;0.000;0.000;2022-09-13T14:26:48;1.73;;;1.02;;
70216;SDS011;57608;0.000;0.000;2022-09-13T14:29:18;3.55;;;1.40;;
70216;SDS011;57608;0.000;0.000;2022-09-13T14:31:46;2.22;;;1.30;;
70216;SDS011;57608;0.000;0.000;2022-09-13T14:34:23;2.50;;;1.48;;
70216;SDS011;57608;0.000;0.000;2022-09-13T14:36:54;1.83;;;1.07;;
70216;SDS011;57608;0.000;0.000;2022-09-13T14:39:22;2.03;;;1.10;;
70216;SDS011;57608;0.000;0.000;2022-09-13T14:41:48;5.18;;;1.55;;
70216;SDS011;57608;0.000;0.000;2022-09-13T14:44:45;2.58;;;1.38;;
70216;SDS011;57608;0.000;0.000;2022-09-13T14:47:15;3.22;;;1.33;;
70216;SDS011;57608;0.000;0.000;2022-09-13T14:49:57;3.42;;;1.20;;
70216;SDS011;57608;0.000;0.000;2022-09-13T14:52:33;3.28;;;1.83;;
70216;SDS011;57608;0.000;0.000;2022-09-13T14:55:03;2.65;;;1.20;;
70216;SDS011;57608;0.000;0.000;2022-09-13T14:57:37;2.22;;;1.10;;
70216;SDS011;57608;0.000;0.000;2022-09-13T15:02:44;4.25;;;1.35;;
70216;SDS011;57608;0.000;0.000;2022-09-13T15:05:15;3.65;;;1.38;;
70216;SDS011;57608;0.000;0.000;2022-09-13T15:07:42;2.40;;;1.20;;
70216;SDS011;57608;0.000;0.000;2022-09-13T15:17:57;2.78;;;1.27;;
70216;SDS011;57608;0.000;0.000;2022-09-13T15:20:29;3.40;;;1.20;;
70216;SDS011;57608;0.000;0.000;2022-09-13T15:23:34;2.53;;;1.30;;
70216;SDS011;57608;0.000;0.000;2022-09-13T15:28:53;2.55;;;1.45;;
70216;SDS011;57608;0.000;0.000;2022-09-13T15:31:36;2.72;;;1.10;;
70216;SDS011;57608;0.000;0.000;2022-09-13T15:36:45;3.80;;;1.25;;
70216;SDS011;57608;0.000;0.000;2022-09-13T15:39:19;2.33;;;1.42;;
70216;SDS011;57608;0.000;0.000;2022-09-13T15:41:52;2.22;;;1.20;;
70216;SDS011;57608;0.000;0.000;2022-09-13T15:44:25;2.22;;;1.20;;
70216;SDS011;57608;0.000;0.000;2022-09-13T15:46:58;3.22;;;1.10;;
70216;SDS011;57608;0.000;0.000;2022-09-13T15:49:26;3.88;;;1.30;;
70216;SDS011;57608;0.000;0.000;2022-09-13T15:51:54;1.90;;;1.23;;
70216;SDS011;57608;0.000;0.000;2022-09-13T15:54:30;2.83;;;1.40;;
70216;SDS011;57608;0.000;0.000;2022-09-13T15:57:00;2.17;;;1.40;;
70216;SDS011;57608;0.000;0.000;2022-09-13T15:59:26;2.33;;;1.10;;
70216;SDS011;57608;0.000;0.000;2022-09-13T16:01:51;1.77;;;1.02;;
70216;SDS011;57608;0.000;0.000;2022-09-13T16:04:17;1.95;;;1.05;;
70216;SDS011;57608;0.000;0.000;2022-09-13T16:06:44;2.80;;;1.25;;
70216;SDS011;57608;0.000;0.000;2022-09-13T16:09:20;2.55;;;1.10;;
70216;SDS011;57608;0.000;0.000;2022-09-13T16:11:47;2.47;;;1.30;;
70216;SDS011;57608;0.000;0.000;2022-09-13T16:14:13;2.42;;;1.10;;
70216;SDS011;57608;0.000;0.000;2022-09-13T16:16:39;2.00;;;1.15;;
70216;SDS011;57608;0.000;0.000;2022-09-13T16:19:05;1.77;;;1.15;;
70216;SDS011;57608;0.000;0.000;2022-09-13T16:21:30;1.88;;;1.10;;
70216;SDS011;57608;0.000;0.000;2022-09-13T16:23:56;2.72;;;1.30;;
70216;SDS011;57608;0.000;0.000;2022-09-13T16:26:22;1.92;;;1.25;;
70216;SDS011;57608;0.000;0.000;2022-09-13T16:28:47;2.55;;;1.40;;
70216;SDS011;57608;0.000;0.000;2022-09-13T16:31:13;1.95;;;1.25;;
70216;SDS011;57608;0.000;0.000;2022-09-13T16:33:40;3.08;;;1.33;;
70216;SDS011;57608;0.000;0.000;2022-09-13T16:36:07;3.40;;;1.25;;
70216;SDS011;57608;0.000;0.000;2022-09-13T16:38:36;2.38;;;1.40;;
70216;SDS011;57608;0.000;0.000;2022-09-13T16:41:05;2.83;;;1.35;;
70216;SDS011;57608;0.000;0.000;2022-09-13T16:43:31;2.08;;;1.40;;
70216;SDS011;57608;0.000;0.000;2022-09-13T16:45:57;2.08;;;0.95;;
70216;SDS011;57608;0.000;0.000;2022-09-13T16:48:23;2.60;;;1.52;;
70216;SDS011;57608;0.000;0.000;2022-09-13T16:50:49;2.50;;;1.13;;
70216;SDS011;57608;0.000;0.000;2022-09-13T16:53:15;2.28;;;1.27;;
70216;SDS011;57608;0.000;0.000;2022-09-13T16:55:41;2.72;;;1.60;;
70216;SDS011;57608;0.000;0.000;2022-09-13T16:58:09;2.28;;;1.40;;
70216;SDS011;57608;0.000;0.000;2022-09-13T17:00:52;2.78;;;1.27;;
70216;SDS011;57608;0.000;0.000;2022-09-13T17:03:17;2.47;;;1.50;;
70216;SDS011;57608;0.000;0.000;2022-09-13T17:05:43;2.28;;;1.25;;
70216;SDS011;57608;0.000;0.000;2022-09-13T17:08:08;2.05;;;1.10;;
70216;SDS011;57608;0.000;0.000;2022-09-13T17:10:36;1.90;;;1.10;;
70216;SDS011;57608;0.000;0.000;2022-09-13T17:13:02;1.80;;;1.17;;
70216;SDS011;57608;0.000;0.000;2022-09-13T17:15:30;2.08;;;1.40;;
70216;SDS011;57608;0.000;0.000;2022-09-13T17:17:58;2.95;;;1.42;;
70216;SDS011;57608;0.000;0.000;2022-09-13T17:20:24;1.92;;;1.38;;
70216;SDS011;57608;0.000;0.000;2022-09-13T17:22:49;3.05;;;1.20;;
70216;SDS011;57608;0.000;0.000;2022-09-13T17:25:15;2.00;;;1.20;;
70216;SDS011;57608;0.000;0.000;2022-09-13T17:27:40;2.58;;;1.27;;
70216;SDS011;57608;0.000;0.000;2022-09-13T17:30:07;3.95;;;1.40;;
70216;SDS011;57608;0.000;0.000;2022-09-13T17:32:35;1.95;;;1.33;;
70216;SDS011;57608;0.000;0.000;2022-09-13T17:35:00;2.50;;;1.40;;
70216;SDS011;57608;0.000;0.000;2022-09-13T17:37:26;1.85;;;1.20;;
70216;SDS011;57608;0.000;0.000;2022-09-13T17:39:51;2.65;;;1.45;;
70216;SDS011;57608;0.000;0.000;2022-09-13T17:42:16;2.25;;;1.17;;
70216;SDS011;57608;0.000;0.000;2022-09-13T17:44:42;4.32;;;1.80;;
70216;SDS011;57608;0.000;0.000;2022-09-13T17:47:08;2.88;;;1.45;;
70216;SDS011;57608;0.000;0.000;2022-09-13T17:49:33;2.78;;;1.67;;
70216;SDS011;57608;0.000;0.000;2022-09-13T17:51:58;2.00;;;1.23;;
70216;SDS011;57608;0.000;0.000;2022-09-13T17:54:25;2.50;;;1.30;;
70216;SDS011;57608;0.000;0.000;2022-09-13T17:56:50;2.38;;;1.13;;
70216;SDS011;57608;0.000;0.000;2022-09-13T17:59:17;2.38;;;1.33;;
70216;SDS011;57608;0.000;0.000;2022-09-13T18:01:45;2.78;;;1.40;;
70216;SDS011;57608;0.000;0.000;2022-09-13T18:04:13;2.42;;;1.60;;
70216;SDS011;57608;0.000;0.000;2022-09-13T18:06:40;3.38;;;1.42;;
70216;SDS011;57608;0.000;0.000;2022-09-13T18:09:07;3.75;;;1.45;;
70216;SDS011;57608;0.000;0.000;2022-09-13T18:11:34;2.63;;;1.50;;
70216;SDS011;57608;0.000;0.000;2022-09-13T18:13:59;3.35;;;1.30;;
70216;SDS011;57608;0.000;0.000;2022-09-13T18:16:26;2.85;;;1.50;;
70216;SDS011;57608;0.000;0.000;2022-09-13T18:18:53;2.80;;;1.60;;
70216;SDS011;57608;0.000;0.000;2022-09-13T18:21:20;3.92;;;1.60;;
70216;SDS011;57608;0.000;0.000;2022-09-13T18:23:49;2.53;;;1.40;;
70216;SDS011;57608;0.000;0.000;2022-09-13T18:26:17;2.45;;;1.40;;
70216;SDS011;57608;0.000;0.000;2022-09-13T18:28:45;2.38;;;1.42;;
70216;SDS011;57608;0.000;0.000;2022-09-13T18:31:12;2.95;;;1.63;;
70216;SDS011;57608;0.000;0.000;2022-09-13T18:33:42;1.88;;;1.25;;
70216;SDS011;57608;0.000;0.000;2022-09-13T18:36:12;2.38;;;1.50;;
70216;SDS011;57608;0.000;0.000;2022-09-13T18:38:41;2.95;;;1.42;;
70216;SDS011;57608;0.000;0.000;2022-09-13T18:41:11;2.47;;;1.48;;
70216;SDS011;57608;0.000;0.000;2022-09-13T18:43:39;2.22;;;1.40;;
70216;SDS011;57608;0.000;0.000;2022-09-13T18:46:15;3.28;;;1.67;;
70216;SDS011;57608;0.000;0.000;2022-09-13T18:48:49;2.22;;;1.55;;
70216;SDS011;57608;0.000;0.000;2022-09-13T18:51:19;2.50;;;1.70;;
70216;SDS011;57608;0.000;0.000;2022-09-13T18:53:46;2.67;;;1.63;;
70216;SDS011;57608;0.000;0.000;2022-09-13T18:56:13;4.28;;;1.77;;
70216;SDS011;57608;0.000;0.000;2022-09-13T18:58:41;3.15;;;1.90;;
70216;SDS011;57608;0.000;0.000;2022-09-13T19:01:15;7.82;;;1.80;;
70216;SDS011;57608;0.000;0.000;2022-09-13T19:03:49;17.52;;;3.05;;
70216;SDS011;57608;0.000;0.000;2022-09-13T19:06:19;17.77;;;4.22;;
70216;SDS011;57608;0.000;0.000;2022-09-13T19:08:48;10.25;;;2.35;;
70216;SDS011;57608;0.000;0.000;2022-09-13T19:11:15;13.50;;;2.90;;
70216;SDS011;57608;0.000;0.000;2022-09-13T19:13:42;9.13;;;3.03;;
70216;SDS011;57608;0.000;0.000;2022-09-13T19:16:12;10.77;;;2.70;;
70216;SDS011;57608;0.000;0.000;2022-09-13T19:18:40;10.02;;;2.90;;
70216;SDS011;57608;0.000;0.000;2022-09-13T19:21:07;12.13;;;4.00;;
70216;SDS011;57608;0.000;0.000;2022-09-13T19:23:38;8.57;;;2.33;;
70216;SDS011;57608;0.000;0.000;2022-09-13T19:26:05;6.35;;;2.10;;
70216;SDS011;57608;0.000;0.000;2022-09-13T19:28:38;12.93;;;2.85;;
70216;SDS011;57608;0.000;0.000;2022-09-13T19:31:08;6.57;;;3.22;;
70216;SDS011;57608;0.000;0.000;2022-09-13T19:33:36;12.48;;;9.05;;
70216;SDS011;57608;0.000;0.000;2022-09-13T19:36:03;10.10;;;4.20;;
70216;SDS011;57608;0.000;0.000;2022-09-13T19:38:31;8.73;;;4.20;;